Time;durP1;ratioP1;P1;durP2;ratioP2;P2;SDS_P1;SDS_P2;PMS_P1;PMS_P2;Temp;Humidity;BMP_temperature;BMP_pressure;BME280_temperature;BME280_humidity;BME280_pressure;Samples;Min_cycle;Max_cycle;Signal;HPM_P1;HPM_P2
2024/01/08 00:01:34;;;;;;;7.70;3.53;;;;;;;;;;5032340;28;20030;-91
2024/01/08 00:03:59;;;;;;;7.15;3.97;;;;;;;;;;5032269;28;20035;-92
2024/01/08 00:06:24;;;;;;;6.13;3.70;;;;;;;;;;5045395;28;20014;-91
2024/01/08 00:08:49;;;;;;;7.33;4.50;;;;;;;;;;5043283;28;20021;-90
2024/01/08 00:11:15;;;;;;;7.43;3.80;;;;;;;;;;5036870;28;20033;-93
2024/01/08 00:13:40;;;;;;;5.93;3.90;;;;;;;;;;5044917;28;20036;-92
2024/01/08 00:16:05;;;;;;;9.67;4.63;;;;;;;;;;5033587;28;20524;-92
2024/01/08 00:18:32;;;;;;;7.60;3.60;;;;;;;;;;5032682;28;20040;-91
2024/01/08 00:20:59;;;;;;;10.52;5.93;;;;;;;;;;5030580;28;20537;-91
2024/01/08 00:23:24;;;;;;;10.18;6.07;;;;;;;;;;5032038;28;20068;-93
2024/01/08 00:25:49;;;;;;;10.20;5.73;;;;;;;;;;5032387;28;20010;-91
2024/01/08 00:28:15;;;;;;;12.93;6.80;;;;;;;;;;5031953;28;20030;-91
2024/01/08 00:30:40;;;;;;;13.60;6.90;;;;;;;;;;5030170;28;20052;-92
2024/01/08 00:33:05;;;;;;;13.87;7.47;;;;;;;;;;5031813;28;20560;-92
2024/01/08 00:35:30;;;;;;;13.67;7.53;;;;;;;;;;5032132;28;20037;-92
2024/01/08 00:37:56;;;;;;;14.53;7.60;;;;;;;;;;5031575;28;20014;-90
2024/01/08 00:40:21;;;;;;;17.05;8.50;;;;;;;;;;5029856;28;20151;-91
2024/01/08 00:42:47;;;;;;;16.43;6.20;;;;;;;;;;5030576;28;20032;-91
2024/01/08 00:45:12;;;;;;;14.07;7.83;;;;;;;;;;5031728;28;20013;-92
2024/01/08 00:47:37;;;;;;;14.50;7.60;;;;;;;;;;5031889;28;20021;-91
2024/01/08 00:50:03;;;;;;;15.40;7.47;;;;;;;;;;5032984;28;20017;-91
2024/01/08 00:52:28;;;;;;;24.67;11.20;;;;;;;;;;5043117;28;20571;-91
2024/01/08 00:54:53;;;;;;;24.00;11.77;;;;;;;;;;5034227;28;20110;-94
2024/01/08 00:57:19;;;;;;;20.57;10.37;;;;;;;;;;5052924;28;20021;-90
2024/01/08 00:59:44;;;;;;;24.63;12.37;;;;;;;;;;5043910;28;20009;-92
2024/01/08 01:02:09;;;;;;;21.30;9.87;;;;;;;;;;5036994;28;20056;-92
2024/01/08 01:04:34;;;;;;;24.03;11.43;;;;;;;;;;5033578;28;20504;-90
2024/01/08 01:06:59;;;;;;;23.27;10.70;;;;;;;;;;5037275;28;20026;-91
2024/01/08 01:09:24;;;;;;;19.97;10.47;;;;;;;;;;5037174;28;20056;-91
2024/01/08 01:11:50;;;;;;;18.77;10.37;;;;;;;;;;5033524;28;20481;-92
2024/01/08 01:14:15;;;;;;;19.47;9.80;;;;;;;;;;5032274;28;20036;-91
2024/01/08 01:16:40;;;;;;;16.90;8.80;;;;;;;;;;5031253;28;20032;-92
2024/01/08 01:19:05;;;;;;;14.80;7.37;;;;;;;;;;5031555;28;20028;-91
2024/01/08 01:21:30;;;;;;;16.60;8.03;;;;;;;;;;5029317;28;20029;-91
2024/01/08 01:23:56;;;;;;;13.83;7.43;;;;;;;;;;5033612;28;20282;-93
2024/01/08 01:26:21;;;;;;;13.90;8.10;;;;;;;;;;5047825;28;20005;-90
2024/01/08 01:28:46;;;;;;;9.53;5.87;;;;;;;;;;5039669;28;20055;-91
2024/01/08 01:31:12;;;;;;;14.00;7.80;;;;;;;;;;5030409;28;20045;-91
2024/01/08 01:33:37;;;;;;;10.83;6.50;;;;;;;;;;5032015;28;20025;-91
2024/01/08 01:36:02;;;;;;;9.27;5.87;;;;;;;;;;5031000;28;20032;-92
2024/01/08 01:38:27;;;;;;;10.20;6.30;;;;;;;;;;5034913;28;20025;-91
2024/01/08 01:40:53;;;;;;;7.97;5.22;;;;;;;;;;5040445;28;20029;-91
2024/01/08 01:43:23;;;;;;;6.90;4.53;;;;;;;;;;5032775;28;20556;-91
2024/01/08 01:45:48;;;;;;;10.25;5.95;;;;;;;;;;5040967;28;20039;-91
2024/01/08 01:48:13;;;;;;;8.70;5.77;;;;;;;;;;5031400;28;20104;-91
2024/01/08 01:50:38;;;;;;;7.87;5.77;;;;;;;;;;5030643;28;20048;-91
2024/01/08 01:53:04;;;;;;;10.63;5.93;;;;;;;;;;5030613;28;20551;-90
2024/01/08 01:55:29;;;;;;;8.90;5.10;;;;;;;;;;5029125;28;20056;-91
2024/01/08 01:57:54;;;;;;;8.67;5.57;;;;;;;;;;5030384;28;20021;-90
2024/01/08 02:00:19;;;;;;;8.43;5.83;;;;;;;;;;5030274;28;20009;-91
2024/01/08 02:02:45;;;;;;;9.40;6.13;;;;;;;;;;5030297;28;20413;-91
2024/01/08 02:05:11;;;;;;;6.78;4.88;;;;;;;;;;5033429;28;20021;-91
2024/01/08 02:07:37;;;;;;;9.37;5.70;;;;;;;;;;5033224;28;20056;-90
2024/01/08 02:10:03;;;;;;;8.60;5.28;;;;;;;;;;5032537;28;20024;-90
2024/01/08 02:12:28;;;;;;;9.93;5.93;;;;;;;;;;5032893;28;20025;-92
2024/01/08 02:14:53;;;;;;;7.27;5.03;;;;;;;;;;5034186;28;20033;-90
2024/01/08 02:17:18;;;;;;;6.53;4.40;;;;;;;;;;5034429;28;20029;-91
2024/01/08 02:19:44;;;;;;;6.37;3.87;;;;;;;;;;5034574;28;20014;-92
2024/01/08 02:22:09;;;;;;;6.80;4.40;;;;;;;;;;5037250;28;20508;-91
2024/01/08 02:24:36;;;;;;;7.77;4.60;;;;;;;;;;5047270;28;20025;-91
2024/01/08 02:27:12;;;;;;;7.13;4.40;;;;;;;;;;5048561;28;20472;-92
2024/01/08 02:29:37;;;;;;;6.00;4.60;;;;;;;;;;5051612;28;20035;-90
2024/01/08 02:32:02;;;;;;;5.97;4.20;;;;;;;;;;5044541;28;20259;-92
2024/01/08 02:34:28;;;;;;;5.87;3.67;;;;;;;;;;5035269;28;20029;-92
2024/01/08 02:36:53;;;;;;;7.10;4.23;;;;;;;;;;5034157;28;20096;-91
2024/01/08 02:39:18;;;;;;;5.50;2.73;;;;;;;;;;5034056;28;20369;-91
2024/01/08 02:41:43;;;;;;;6.33;4.20;;;;;;;;;;5031991;28;20030;-92
2024/01/08 02:44:08;;;;;;;7.43;3.43;;;;;;;;;;5034080;28;20028;-92
2024/01/08 02:46:34;;;;;;;4.57;3.67;;;;;;;;;;5034422;28;20018;-92
2024/01/08 02:48:59;;;;;;;3.97;3.40;;;;;;;;;;5034233;28;20397;-90
2024/01/08 02:51:26;;;;;;;4.32;3.10;;;;;;;;;;5031863;28;20021;-90
2024/01/08 02:53:51;;;;;;;5.30;3.63;;;;;;;;;;5033893;28;20109;-90
2024/01/08 02:56:20;;;;;;;6.33;3.50;;;;;;;;;;5033478;28;20447;-90
2024/01/08 02:58:46;;;;;;;6.40;3.13;;;;;;;;;;5034027;28;20105;-90
2024/01/08 03:01:11;;;;;;;5.03;3.23;;;;;;;;;;5032947;28;20075;-91
2024/01/08 03:03:36;;;;;;;4.33;3.00;;;;;;;;;;5034223;28;20025;-91
2024/01/08 03:06:02;;;;;;;6.57;3.80;;;;;;;;;;5034075;28;20013;-91
2024/01/08 03:08:27;;;;;;;6.13;3.67;;;;;;;;;;5034344;28;20378;-91
2024/01/08 03:10:52;;;;;;;5.63;3.03;;;;;;;;;;5037049;28;20001;-91
2024/01/08 03:13:17;;;;;;;5.83;3.63;;;;;;;;;;5053731;28;20017;-90
2024/01/08 03:15:45;;;;;;;6.00;3.90;;;;;;;;;;5042045;28;20028;-92
2024/01/08 03:18:10;;;;;;;6.83;3.70;;;;;;;;;;5043769;28;20299;-89
2024/01/08 03:20:36;;;;;;;5.90;3.60;;;;;;;;;;5035461;28;20017;-92
2024/01/08 03:23:01;;;;;;;4.82;3.45;;;;;;;;;;5045040;28;20033;-92
2024/01/08 03:25:26;;;;;;;4.73;3.10;;;;;;;;;;5050195;28;20032;-90
2024/01/08 03:27:52;;;;;;;4.97;3.37;;;;;;;;;;5033875;28;20036;-91
2024/01/08 03:30:17;;;;;;;5.47;3.60;;;;;;;;;;5033307;28;20524;-92
2024/01/08 03:32:42;;;;;;;5.77;3.27;;;;;;;;;;5032891;28;20029;-90
2024/01/08 03:35:08;;;;;;;7.20;4.13;;;;;;;;;;5033596;28;20013;-91
2024/01/08 03:37:33;;;;;;;9.85;4.28;;;;;;;;;;5033718;28;20021;-90
2024/01/08 03:39:58;;;;;;;5.50;3.50;;;;;;;;;;5032845;28;20104;-89
2024/01/08 03:42:24;;;;;;;3.63;2.50;;;;;;;;;;5031825;28;20120;-90
2024/01/08 03:44:49;;;;;;;5.73;3.87;;;;;;;;;;5031895;28;20079;-90
2024/01/08 03:47:15;;;;;;;4.63;3.63;;;;;;;;;;5033484;28;20025;-91
2024/01/08 03:49:40;;;;;;;5.77;3.73;;;;;;;;;;5032875;28;20634;-89
2024/01/08 03:52:05;;;;;;;6.63;4.13;;;;;;;;;;5033015;28;20022;-91
2024/01/08 03:54:30;;;;;;;6.50;3.83;;;;;;;;;;5041470;28;20079;-91
2024/01/08 03:56:55;;;;;;;7.07;3.43;;;;;;;;;;5040315;28;20081;-90
2024/01/08 03:59:21;;;;;;;6.33;2.57;;;;;;;;;;5043091;28;20045;-91
2024/01/08 04:01:47;;;;;;;9.93;4.53;;;;;;;;;;5038827;28;20025;-91
2024/01/08 04:04:12;;;;;;;6.23;4.27;;;;;;;;;;5034654;28;20025;-91
2024/01/08 04:06:38;;;;;;;8.87;4.27;;;;;;;;;;5034150;28;20013;-91
2024/01/08 04:09:03;;;;;;;6.20;4.18;;;;;;;;;;5032889;28;20088;-92
2024/01/08 04:11:29;;;;;;;6.37;3.70;;;;;;;;;;5032172;28;20021;-92
2024/01/08 04:13:54;;;;;;;6.90;3.80;;;;;;;;;;5031150;28;20021;-91
2024/01/08 04:16:20;;;;;;;6.37;3.97;;;;;;;;;;5032744;28;20028;-91
2024/01/08 04:18:45;;;;;;;6.33;3.77;;;;;;;;;;5032594;28;20021;-90
2024/01/08 04:21:14;;;;;;;6.67;4.30;;;;;;;;;;5032056;28;20025;-90
2024/01/08 04:23:39;;;;;;;6.97;4.30;;;;;;;;;;5031202;28;20033;-90
2024/01/08 04:26:04;;;;;;;6.50;3.50;;;;;;;;;;5032279;28;20330;-91
2024/01/08 04:28:30;;;;;;;5.73;3.57;;;;;;;;;;5032320;28;20025;-91
2024/01/08 04:30:55;;;;;;;7.93;4.40;;;;;;;;;;5032433;28;20018;-92
2024/01/08 04:33:20;;;;;;;8.40;3.70;;;;;;;;;;5032486;28;20104;-89
2024/01/08 04:35:45;;;;;;;5.60;3.33;;;;;;;;;;5030915;28;20021;-91
2024/01/08 04:38:11;;;;;;;7.37;3.33;;;;;;;;;;5032225;28;20032;-91
2024/01/08 04:40:36;;;;;;;6.37;3.80;;;;;;;;;;5032514;28;20822;-91
2024/01/08 04:43:01;;;;;;;7.10;3.40;;;;;;;;;;5035494;28;20037;-92
2024/01/08 04:45:26;;;;;;;6.10;3.83;;;;;;;;;;5054985;28;19998;-92
2024/01/08 04:47:52;;;;;;;9.80;4.33;;;;;;;;;;5045415;28;20027;-92
2024/01/08 04:50:17;;;;;;;6.20;3.30;;;;;;;;;;5033678;28;20046;-92
2024/01/08 04:52:42;;;;;;;6.43;3.50;;;;;;;;;;5032536;28;20052;-92
2024/01/08 04:55:08;;;;;;;6.43;3.50;;;;;;;;;;5032021;28;20659;-91
2024/01/08 04:57:33;;;;;;;4.83;3.27;;;;;;;;;;5031897;28;20032;-92
2024/01/08 04:59:58;;;;;;;5.10;3.53;;;;;;;;;;5030094;28;20014;-92
2024/01/08 05:02:23;;;;;;;6.53;3.20;;;;;;;;;;5029540;28;20080;-92
2024/01/08 05:04:48;;;;;;;5.67;3.37;;;;;;;;;;5031955;28;20025;-92
2024/01/08 05:07:13;;;;;;;6.10;3.73;;;;;;;;;;5031679;28;20457;-91
2024/01/08 05:09:39;;;;;;;6.73;3.80;;;;;;;;;;5031343;28;20034;-91
2024/01/08 05:12:04;;;;;;;5.30;3.43;;;;;;;;;;5030944;28;20073;-91
2024/01/08 05:14:29;;;;;;;5.33;3.20;;;;;;;;;;5031506;28;20075;-91
2024/01/08 05:16:54;;;;;;;5.63;2.70;;;;;;;;;;5033550;28;20079;-91
2024/01/08 05:19:20;;;;;;;5.10;3.50;;;;;;;;;;5039452;28;20009;-92
2024/01/08 05:21:45;;;;;;;4.83;3.60;;;;;;;;;;5051629;28;20375;-91
2024/01/08 05:24:11;;;;;;;6.63;3.47;;;;;;;;;;5031593;28;20060;-91
2024/01/08 05:26:37;;;;;;;8.75;4.32;;;;;;;;;;5038552;28;20022;-91
2024/01/08 05:29:02;;;;;;;7.27;3.90;;;;;;;;;;5036968;28;20033;-91
2024/01/08 05:31:27;;;;;;;7.77;4.07;;;;;;;;;;5038880;28;20002;-91
2024/01/08 05:33:52;;;;;;;3.40;1.97;;;;;;;;;;5041401;28;20032;-92
2024/01/08 05:36:17;;;;;;;10.40;4.03;;;;;;;;;;5033258;28;20013;-91
2024/01/08 05:38:43;;;;;;;7.57;3.37;;;;;;;;;;5040596;28;20033;-91
2024/01/08 05:41:08;;;;;;;7.67;4.47;;;;;;;;;;5035658;28;20406;-92
2024/01/08 05:43:39;;;;;;;11.30;4.03;;;;;;;;;;5035812;28;20431;-91
2024/01/08 05:46:05;;;;;;;10.60;4.80;;;;;;;;;;5035927;28;20022;-92
2024/01/08 05:48:37;;;;;;;6.57;4.23;;;;;;;;;;5035634;28;20086;-91
2024/01/08 05:51:03;;;;;;;5.28;3.60;;;;;;;;;;5035025;28;20039;-91
2024/01/08 05:53:28;;;;;;;10.38;4.63;;;;;;;;;;5034546;28;20021;-91
2024/01/08 05:55:53;;;;;;;7.57;4.53;;;;;;;;;;5035636;28;20514;-91
2024/01/08 05:58:18;;;;;;;7.20;4.30;;;;;;;;;;5035744;28;20052;-91
2024/01/08 06:00:43;;;;;;;8.30;4.40;;;;;;;;;;5034960;28;20051;-91
2024/01/08 06:03:08;;;;;;;7.60;4.50;;;;;;;;;;5033420;28;20397;-90
2024/01/08 06:05:34;;;;;;;10.93;5.20;;;;;;;;;;5034219;28;20389;-89
2024/01/08 06:08:00;;;;;;;7.17;4.30;;;;;;;;;;5034691;28;20155;-90
2024/01/08 06:10:25;;;;;;;6.32;3.17;;;;;;;;;;5034517;28;20031;-89
2024/01/08 06:12:51;;;;;;;6.10;4.03;;;;;;;;;;5036075;28;20112;-89
2024/01/08 06:15:16;;;;;;;8.37;3.97;;;;;;;;;;5052806;28;20013;-90
2024/01/08 06:17:41;;;;;;;8.70;4.40;;;;;;;;;;5041838;28;20467;-90
2024/01/08 06:20:09;;;;;;;7.65;4.82;;;;;;;;;;5042912;28;20021;-92
2024/01/08 06:22:34;;;;;;;8.50;4.97;;;;;;;;;;5033435;28;20021;-91
2024/01/08 06:24:59;;;;;;;7.97;4.53;;;;;;;;;;5034052;28;20071;-90
2024/01/08 06:27:24;;;;;;;12.20;4.67;;;;;;;;;;5034208;28;20029;-90
2024/01/08 06:29:49;;;;;;;10.07;5.17;;;;;;;;;;5033881;28;20096;-90
2024/01/08 06:32:15;;;;;;;10.93;5.10;;;;;;;;;;5034054;28;20013;-91
2024/01/08 06:34:40;;;;;;;9.03;4.93;;;;;;;;;;5034095;28;20021;-90
2024/01/08 06:37:05;;;;;;;8.80;4.83;;;;;;;;;;5034632;28;20017;-90
2024/01/08 06:39:30;;;;;;;9.77;5.20;;;;;;;;;;5033689;28;20417;-90
2024/01/08 06:41:56;;;;;;;10.00;5.50;;;;;;;;;;5040827;28;20093;-91
2024/01/08 06:44:21;;;;;;;10.47;5.17;;;;;;;;;;5046551;28;20053;-90
2024/01/08 06:46:46;;;;;;;9.43;5.83;;;;;;;;;;5048411;28;20018;-90
2024/01/08 06:49:11;;;;;;;10.00;5.47;;;;;;;;;;5047314;28;20029;-90
2024/01/08 06:51:42;;;;;;;5.90;4.80;;;;;;;;;;5050633;28;20052;-91
2024/01/08 06:54:07;;;;;;;7.55;4.72;;;;;;;;;;5054436;28;20029;-91
2024/01/08 06:56:33;;;;;;;7.27;4.83;;;;;;;;;;5055467;28;20035;-92
2024/01/08 06:59:01;;;;;;;8.07;5.40;;;;;;;;;;5055144;28;20144;-92
2024/01/08 07:01:26;;;;;;;10.57;5.82;;;;;;;;;;5054417;28;20018;-91
2024/01/08 07:03:51;;;;;;;11.50;5.77;;;;;;;;;;5045525;28;20068;-92
2024/01/08 07:06:17;;;;;;;12.87;5.73;;;;;;;;;;5034703;28;20025;-92
2024/01/08 07:08:45;;;;;;;9.18;5.40;;;;;;;;;;5034235;28;20143;-91
2024/01/08 07:11:18;;;;;;;10.00;5.87;;;;;;;;;;5032794;28;20025;-92
2024/01/08 07:13:43;;;;;;;8.17;4.90;;;;;;;;;;5035737;28;20263;-92
2024/01/08 07:16:08;;;;;;;10.40;5.87;;;;;;;;;;5043479;28;20018;-92
2024/01/08 07:18:34;;;;;;;10.07;5.80;;;;;;;;;;5050710;28;20429;-92
2024/01/08 07:20:59;;;;;;;7.70;4.93;;;;;;;;;;5034386;28;20029;-91
2024/01/08 07:23:25;;;;;;;12.63;6.00;;;;;;;;;;5032569;28;20036;-92
2024/01/08 07:25:52;;;;;;;10.05;6.15;;;;;;;;;;5034540;28;20060;-91
2024/01/08 07:28:17;;;;;;;13.60;6.10;;;;;;;;;;5032723;28;20018;-91
2024/01/08 07:30:44;;;;;;;11.17;5.70;;;;;;;;;;5032696;28;20014;-92
2024/01/08 07:33:09;;;;;;;5.70;4.13;;;;;;;;;;5035703;28;20018;-91
2024/01/08 07:35:34;;;;;;;8.17;4.83;;;;;;;;;;5035071;28;20362;-92
2024/01/08 07:37:59;;;;;;;9.10;5.43;;;;;;;;;;5034446;28;20017;-91
2024/01/08 07:40:25;;;;;;;7.00;5.07;;;;;;;;;;5035007;28;20025;-92
2024/01/08 07:42:57;;;;;;;10.25;5.43;;;;;;;;;;5039116;28;20025;-91
2024/01/08 07:45:23;;;;;;;7.53;4.78;;;;;;;;;;5048908;28;20028;-91
2024/01/08 07:47:48;;;;;;;9.60;4.60;;;;;;;;;;5048055;28;20026;-91
2024/01/08 07:50:14;;;;;;;8.25;4.75;;;;;;;;;;5039200;28;20033;-91
2024/01/08 07:52:39;;;;;;;8.63;5.00;;;;;;;;;;5035042;28;20028;-91
2024/01/08 07:55:06;;;;;;;12.13;5.50;;;;;;;;;;5034914;28;20047;-92
2024/01/08 07:57:31;;;;;;;7.95;4.85;;;;;;;;;;5035992;28;20104;-92
2024/01/08 07:59:57;;;;;;;9.90;5.30;;;;;;;;;;5036057;28;20033;-91
2024/01/08 08:02:22;;;;;;;7.07;4.57;;;;;;;;;;5035123;28;20060;-91
2024/01/08 08:04:48;;;;;;;7.13;5.33;;;;;;;;;;5032491;28;20467;-92
2024/01/08 08:07:13;;;;;;;8.57;4.43;;;;;;;;;;5032002;28;20388;-92
2024/01/08 08:09:39;;;;;;;7.37;4.83;;;;;;;;;;5033878;28;20052;-92
2024/01/08 08:12:04;;;;;;;7.77;4.97;;;;;;;;;;5032898;28;20018;-93
2024/01/08 08:14:29;;;;;;;5.47;3.90;;;;;;;;;;5033414;28;20075;-92
2024/01/08 08:16:55;;;;;;;9.20;4.80;;;;;;;;;;5032237;28;20013;-91
2024/01/08 08:19:20;;;;;;;5.37;4.10;;;;;;;;;;5035400;28;20028;-92
2024/01/08 08:21:46;;;;;;;6.90;3.93;;;;;;;;;;5032661;28;20438;-92
2024/01/08 08:24:11;;;;;;;7.47;4.67;;;;;;;;;;5043019;28;20040;-91
2024/01/08 08:26:37;;;;;;;6.63;4.03;;;;;;;;;;5046521;28;20017;-91
2024/01/08 08:29:03;;;;;;;6.60;3.77;;;;;;;;;;5052606;28;20029;-90
2024/01/08 08:31:29;;;;;;;8.90;4.80;;;;;;;;;;5044939;28;20021;-91
2024/01/08 08:33:54;;;;;;;9.53;4.50;;;;;;;;;;5050057;28;20025;-92
2024/01/08 08:36:19;;;;;;;7.20;3.97;;;;;;;;;;5046590;28;20260;-92
2024/01/08 08:38:45;;;;;;;8.83;5.17;;;;;;;;;;5040543;28;20017;-92
2024/01/08 08:41:10;;;;;;;11.13;4.43;;;;;;;;;;5031850;28;20025;-91
2024/01/08 08:43:36;;;;;;;9.10;4.53;;;;;;;;;;5031742;28;20029;-91
2024/01/08 08:46:02;;;;;;;5.67;3.97;;;;;;;;;;5032690;28;20115;-92
2024/01/08 08:48:28;;;;;;;7.33;3.87;;;;;;;;;;5033202;28;20287;-92
2024/01/08 08:50:53;;;;;;;8.63;4.57;;;;;;;;;;5031968;28;20010;-92
2024/01/08 08:53:19;;;;;;;7.83;4.67;;;;;;;;;;5032419;28;20019;-91
2024/01/08 08:55:44;;;;;;;9.63;4.88;;;;;;;;;;5029746;28;20035;-92
2024/01/08 08:58:09;;;;;;;7.57;4.53;;;;;;;;;;5038378;28;20048;-91
2024/01/08 09:00:37;;;;;;;9.30;5.00;;;;;;;;;;5034714;28;20317;-92
2024/01/08 09:03:03;;;;;;;4.88;2.88;;;;;;;;;;5030033;28;20029;-91
2024/01/08 09:05:28;;;;;;;7.17;4.37;;;;;;;;;;5031586;28;20021;-93
2024/01/08 09:07:54;;;;;;;6.63;4.22;;;;;;;;;;5031866;28;20098;-91
2024/01/08 09:10:19;;;;;;;5.43;4.07;;;;;;;;;;5032088;28;20018;-91
2024/01/08 09:12:44;;;;;;;6.17;4.23;;;;;;;;;;5039577;28;20026;-91
2024/01/08 09:15:09;;;;;;;8.03;4.27;;;;;;;;;;5050620;28;20017;-91
2024/01/08 09:17:35;;;;;;;7.47;4.47;;;;;;;;;;5045416;28;20001;-90
2024/01/08 09:20:00;;;;;;;7.93;4.40;;;;;;;;;;5034761;28;20018;-92
2024/01/08 09:22:25;;;;;;;5.93;4.00;;;;;;;;;;5034361;28;20056;-92
2024/01/08 09:24:51;;;;;;;8.80;4.72;;;;;;;;;;5034761;28;20061;-93
2024/01/08 09:27:18;;;;;;;6.53;3.97;;;;;;;;;;5035737;28;20021;-93
2024/01/08 09:29:43;;;;;;;7.25;4.85;;;;;;;;;;5035324;28;20025;-92
2024/01/08 09:32:08;;;;;;;5.40;3.80;;;;;;;;;;5034322;28;20113;-92
2024/01/08 09:34:33;;;;;;;6.27;3.60;;;;;;;;;;5035208;28;20021;-92
2024/01/08 09:36:58;;;;;;;6.10;4.77;;;;;;;;;;5033213;28;20495;-92
2024/01/08 09:39:24;;;;;;;5.13;2.73;;;;;;;;;;5030373;28;20013;-92
2024/01/08 09:41:51;;;;;;;7.60;4.27;;;;;;;;;;5031072;28;20542;-92
2024/01/08 09:44:17;;;;;;;7.22;4.13;;;;;;;;;;5031624;28;20033;-92
2024/01/08 09:46:44;;;;;;;6.40;4.10;;;;;;;;;;5031319;28;20049;-92
2024/01/08 09:49:10;;;;;;;7.82;4.47;;;;;;;;;;5031665;28;20104;-92
2024/01/08 09:51:38;;;;;;;6.80;4.63;;;;;;;;;;5031462;28;20013;-91
2024/01/08 09:54:03;;;;;;;9.10;5.05;;;;;;;;;;5031993;28;20030;-92
2024/01/08 09:56:30;;;;;;;6.97;3.87;;;;;;;;;;5030557;28;20014;-92
2024/01/08 09:58:56;;;;;;;6.57;4.20;;;;;;;;;;5037454;28;20020;-92
2024/01/08 10:01:21;;;;;;;8.88;5.18;;;;;;;;;;5044420;28;20021;-93
2024/01/08 10:03:51;;;;;;;8.80;4.57;;;;;;;;;;5032877;28;20030;-92
2024/01/08 10:06:16;;;;;;;8.60;5.25;;;;;;;;;;5034950;28;20017;-92
2024/01/08 10:08:41;;;;;;;7.17;4.27;;;;;;;;;;5031227;28;20021;-91
2024/01/08 10:11:07;;;;;;;7.70;4.23;;;;;;;;;;5031828;28;20020;-91
2024/01/08 10:13:32;;;;;;;7.40;4.90;;;;;;;;;;5030213;28;20025;-92
2024/01/08 10:15:58;;;;;;;7.47;4.78;;;;;;;;;;5031316;28;20160;-92
2024/01/08 10:18:23;;;;;;;7.33;4.80;;;;;;;;;;5030094;28;20088;-92
2024/01/08 10:20:49;;;;;;;8.75;5.05;;;;;;;;;;5032066;28;20041;-91
2024/01/08 10:23:16;;;;;;;6.63;4.73;;;;;;;;;;5030658;28;20477;-92
2024/01/08 10:25:48;;;;;;;6.50;4.72;;;;;;;;;;5033018;28;20412;-92
2024/01/08 10:28:16;;;;;;;6.57;4.57;;;;;;;;;;5036028;28;20021;-93
2024/01/08 10:30:41;;;;;;;7.33;5.07;;;;;;;;;;5036534;28;20392;-92
2024/01/08 10:33:07;;;;;;;7.47;4.53;;;;;;;;;;5038304;28;20292;-93
2024/01/08 10:35:32;;;;;;;7.10;4.47;;;;;;;;;;5037684;28;20108;-92
2024/01/08 10:38:01;;;;;;;7.30;4.60;;;;;;;;;;5036455;28;20094;-91
2024/01/08 10:40:29;;;;;;;6.10;3.55;;;;;;;;;;5034992;28;20108;-91
2024/01/08 10:42:54;;;;;;;7.95;5.13;;;;;;;;;;5045375;28;20067;-91
2024/01/08 10:45:20;;;;;;;7.57;4.00;;;;;;;;;;5045823;28;20057;-91
2024/01/08 10:47:49;;;;;;;7.88;4.15;;;;;;;;;;5044330;28;20036;-92
2024/01/08 10:50:15;;;;;;;5.97;3.80;;;;;;;;;;5044971;28;20059;-92
2024/01/08 10:52:45;;;;;;;6.07;4.30;;;;;;;;;;5043607;28;20017;-92
2024/01/08 10:55:13;;;;;;;5.13;4.05;;;;;;;;;;5036271;28;20117;-92
2024/01/08 10:57:46;;;;;;;8.07;4.35;;;;;;;;;;5034840;28;20028;-92
2024/01/08 11:00:12;;;;;;;9.15;4.05;;;;;;;;;;5034982;28;20025;-92
2024/01/08 11:02:38;;;;;;;6.80;4.13;;;;;;;;;;5033252;28;20110;-92
2024/01/08 11:05:06;;;;;;;6.60;3.60;;;;;;;;;;5034778;28;20017;-92
2024/01/08 11:07:34;;;;;;;6.40;3.80;;;;;;;;;;5034255;28;20280;-92
2024/01/08 11:10:03;;;;;;;4.40;3.08;;;;;;;;;;5039448;28;20014;-92
2024/01/08 11:12:29;;;;;;;4.30;3.63;;;;;;;;;;5043381;28;20025;-92
2024/01/08 11:15:00;;;;;;;4.80;2.70;;;;;;;;;;5037402;28;20064;-91
2024/01/08 11:17:27;;;;;;;6.43;2.95;;;;;;;;;;5035626;28;20014;-91
2024/01/08 11:19:54;;;;;;;6.20;3.45;;;;;;;;;;5034526;28;20048;-92
2024/01/08 11:22:20;;;;;;;7.63;3.38;;;;;;;;;;5032476;28;20167;-92
2024/01/08 11:24:46;;;;;;;3.23;2.47;;;;;;;;;;5034344;28;20021;-92
2024/01/08 11:27:12;;;;;;;4.80;3.00;;;;;;;;;;5034328;28;20013;-92
2024/01/08 11:29:37;;;;;;;4.57;3.00;;;;;;;;;;5041705;28;20021;-93
2024/01/08 11:32:02;;;;;;;4.83;3.57;;;;;;;;;;5052302;28;20048;-92
2024/01/08 11:34:46;;;;;;;7.13;3.67;;;;;;;;;;5048270;28;20010;-93
2024/01/08 11:37:26;;;;;;;4.70;2.78;;;;;;;;;;5056241;28;20365;-92
2024/01/08 11:39:51;;;;;;;3.97;2.95;;;;;;;;;;5034828;28;20040;-91
2024/01/08 11:42:18;;;;;;;4.83;3.23;;;;;;;;;;5034001;28;20481;-92
2024/01/08 11:44:43;;;;;;;5.45;2.90;;;;;;;;;;5034307;28;20009;-92
2024/01/08 11:47:09;;;;;;;3.13;2.67;;;;;;;;;;5033554;28;20535;-91
2024/01/08 11:49:34;;;;;;;4.93;2.97;;;;;;;;;;5033797;28;20025;-92
2024/01/08 11:51:59;;;;;;;3.50;2.47;;;;;;;;;;5033400;28;20100;-92
2024/01/08 11:54:25;;;;;;;3.50;2.28;;;;;;;;;;5033475;28;20083;-89
2024/01/08 11:56:50;;;;;;;4.17;2.93;;;;;;;;;;5033616;28;20021;-90
2024/01/08 11:59:28;;;;;;;4.07;2.47;;;;;;;;;;5034313;28;20106;-90
2024/01/08 12:01:53;;;;;;;3.75;2.70;;;;;;;;;;5034608;28;20060;-94
2024/01/08 12:04:19;;;;;;;5.90;3.23;;;;;;;;;;5034278;28;20037;-93
2024/01/08 12:06:44;;;;;;;4.13;3.17;;;;;;;;;;5033374;28;20485;-94
2024/01/08 12:09:09;;;;;;;4.63;3.20;;;;;;;;;;5034110;28;20028;-92
2024/01/08 12:11:34;;;;;;;5.03;3.33;;;;;;;;;;5033526;28;20040;-91
2024/01/08 12:14:00;;;;;;;3.77;2.80;;;;;;;;;;5045598;28;20280;-91
2024/01/08 12:16:25;;;;;;;3.07;2.27;;;;;;;;;;5045626;28;20045;-91
2024/01/08 12:18:50;;;;;;;5.60;3.13;;;;;;;;;;5040258;28;20036;-92
2024/01/08 12:21:15;;;;;;;6.57;2.97;;;;;;;;;;5044002;28;20418;-92
2024/01/08 12:23:41;;;;;;;4.03;2.80;;;;;;;;;;5036781;28;20060;-94
2024/01/08 12:26:06;;;;;;;3.53;2.47;;;;;;;;;;5041381;28;20013;-92
2024/01/08 12:28:32;;;;;;;3.47;2.03;;;;;;;;;;5031837;28;20022;-93
2024/01/08 12:30:58;;;;;;;5.32;2.95;;;;;;;;;;5032625;28;20018;-91
2024/01/08 12:33:24;;;;;;;4.38;2.60;;;;;;;;;;5033051;28;20032;-92
2024/01/08 12:35:54;;;;;;;4.27;2.23;;;;;;;;;;5032757;28;20594;-91
2024/01/08 12:38:19;;;;;;;2.53;2.03;;;;;;;;;;5031930;28;20306;-91
2024/01/08 12:40:44;;;;;;;4.93;2.37;;;;;;;;;;5033076;28;20051;-92
2024/01/08 12:43:09;;;;;;;3.60;2.30;;;;;;;;;;5034350;28;20117;-92
2024/01/08 12:45:35;;;;;;;3.40;2.10;;;;;;;;;;5036705;28;20025;-93
2024/01/08 12:48:00;;;;;;;3.40;2.20;;;;;;;;;;5035717;28;20017;-92
2024/01/08 12:50:25;;;;;;;2.93;1.93;;;;;;;;;;5034044;28;20079;-91
2024/01/08 12:52:51;;;;;;;5.57;2.10;;;;;;;;;;5034374;28;20476;-91
2024/01/08 12:55:16;;;;;;;2.83;1.77;;;;;;;;;;5038269;28;20013;-93
2024/01/08 12:57:41;;;;;;;3.40;1.60;;;;;;;;;;5038431;28;20029;-92
2024/01/08 13:00:08;;;;;;;3.80;2.13;;;;;;;;;;5048521;28;20018;-92
2024/01/08 13:02:33;;;;;;;2.95;2.08;;;;;;;;;;5049505;28;20085;-92
2024/01/08 13:04:58;;;;;;;6.87;1.70;;;;;;;;;;5049374;28;20036;-92
2024/01/08 13:07:27;;;;;;;3.17;1.70;;;;;;;;;;5045820;28;20017;-92
2024/01/08 13:09:52;;;;;;;3.28;1.88;;;;;;;;;;5045522;28;20029;-92
2024/01/08 13:12:17;;;;;;;2.60;1.70;;;;;;;;;;5037664;28;20101;-93
2024/01/08 13:14:42;;;;;;;2.50;1.37;;;;;;;;;;5034254;28;20422;-93
2024/01/08 13:17:07;;;;;;;2.20;1.70;;;;;;;;;;5032245;28;20611;-93
2024/01/08 13:19:33;;;;;;;1.93;1.20;;;;;;;;;;5033886;28;20021;-92
2024/01/08 13:21:58;;;;;;;3.47;1.60;;;;;;;;;;5032589;28;20048;-92
2024/01/08 13:24:25;;;;;;;1.60;1.40;;;;;;;;;;5034346;28;20061;-92
2024/01/08 13:26:50;;;;;;;2.20;1.70;;;;;;;;;;5031429;28;20461;-92
2024/01/08 13:29:16;;;;;;;2.80;1.33;;;;;;;;;;5032405;28;20113;-93
2024/01/08 13:31:41;;;;;;;2.87;1.13;;;;;;;;;;5031824;28;20025;-93
2024/01/08 13:34:06;;;;;;;2.63;1.40;;;;;;;;;;5033063;28;20049;-93
2024/01/08 13:36:37;;;;;;;1.70;1.17;;;;;;;;;;5032039;28;20056;-93
2024/01/08 13:39:08;;;;;;;3.40;1.50;;;;;;;;;;5032494;28;20040;-92
2024/01/08 13:41:34;;;;;;;2.75;1.60;;;;;;;;;;5029938;28;20025;-91
2024/01/08 13:44:00;;;;;;;1.77;1.25;;;;;;;;;;5033030;28;20098;-91
2024/01/08 13:46:27;;;;;;;2.08;1.50;;;;;;;;;;5047328;28;20049;-92
2024/01/08 13:48:52;;;;;;;3.27;1.40;;;;;;;;;;5039810;28;20029;-92
2024/01/08 13:51:18;;;;;;;2.13;1.20;;;;;;;;;;5043803;28;20033;-92
2024/01/08 13:53:43;;;;;;;3.40;1.30;;;;;;;;;;5032665;28;20354;-92
2024/01/08 13:56:08;;;;;;;1.73;1.20;;;;;;;;;;5032801;28;20064;-92
2024/01/08 13:58:34;;;;;;;2.07;1.40;;;;;;;;;;5032171;28;20014;-92
2024/01/08 14:00:59;;;;;;;1.90;1.27;;;;;;;;;;5035722;28;20021;-92
2024/01/08 14:03:24;;;;;;;4.87;2.00;;;;;;;;;;5035525;28;20630;-91
2024/01/08 14:05:51;;;;;;;3.20;1.50;;;;;;;;;;5034831;28;20018;-91
2024/01/08 14:08:17;;;;;;;2.05;1.38;;;;;;;;;;5036030;28;20033;-91
2024/01/08 14:10:42;;;;;;;3.47;1.40;;;;;;;;;;5035462;28;20022;-92
2024/01/08 14:13:07;;;;;;;1.50;1.10;;;;;;;;;;5035593;28;20033;-92
2024/01/08 14:15:32;;;;;;;1.80;1.20;;;;;;;;;;5036375;28;20441;-91
2024/01/08 14:17:58;;;;;;;1.98;1.30;;;;;;;;;;5035374;28;20021;-92
2024/01/08 14:20:23;;;;;;;2.13;1.40;;;;;;;;;;5035137;28;20096;-92
2024/01/08 14:22:48;;;;;;;2.47;1.53;;;;;;;;;;5035405;28;20052;-92
2024/01/08 14:25:16;;;;;;;2.90;1.30;;;;;;;;;;5036964;28;20022;-91
2024/01/08 14:27:41;;;;;;;3.00;1.50;;;;;;;;;;5040729;28;20089;-92
2024/01/08 14:30:07;;;;;;;3.13;1.40;;;;;;;;;;5049453;28;20060;-91
2024/01/08 14:32:35;;;;;;;1.47;1.37;;;;;;;;;;5043961;28;20421;-91